createdAt,value
2023-03-17T00:01:21.779Z,95.30
2023-03-17T00:03:50.475Z,95.30
2023-03-17T00:06:23.779Z,95.30
2023-03-17T00:08:53.141Z,95.40
2023-03-17T00:11:23.454Z,95.40
2023-03-17T00:13:51.510Z,95.40
2023-03-17T00:16:22.347Z,95.50
2023-03-17T00:18:51.847Z,95.60
2023-03-17T00:21:25.913Z,95.60
2023-03-17T00:23:56.205Z,95.60
2023-03-17T00:26:28.339Z,95.60
2023-03-17T00:28:56.900Z,95.70
2023-03-17T00:31:27.716Z,95.70
2023-03-17T00:33:56.759Z,95.70
2023-03-17T00:36:28.088Z,95.70
2023-03-17T00:38:58.400Z,95.80
2023-03-17T00:41:27.095Z,95.80
2023-03-17T00:43:55.397Z,95.80
2023-03-17T00:46:27.896Z,95.80
2023-03-17T00:48:56.435Z,95.90
2023-03-17T00:51:24.440Z,95.90
2023-03-17T00:53:52.835Z,96.00
2023-03-17T00:56:23.432Z,96.00
2023-03-17T00:58:51.586Z,96.00
2023-03-17T01:01:20.029Z,96.00
2023-03-17T01:03:48.064Z,96.10
2023-03-17T01:06:17.636Z,96.10
2023-03-17T01:08:46.554Z,96.10
2023-03-17T01:11:18.601Z,96.10
2023-03-17T01:13:48.303Z,96.20
2023-03-17T01:16:17.043Z,96.20
2023-03-17T01:18:45.642Z,96.30
2023-03-17T01:21:13.954Z,96.40
2023-03-17T01:23:42.191Z,96.40
2023-03-17T01:26:10.275Z,96.40
2023-03-17T01:28:38.350Z,96.50
2023-03-17T01:31:07.810Z,96.50
2023-03-17T01:33:36.463Z,96.60
2023-03-17T01:36:04.574Z,96.60
2023-03-17T01:38:32.603Z,96.60
2023-03-17T01:41:03.359Z,96.60
2023-03-17T01:43:32.541Z,96.60
2023-03-17T01:46:25.222Z,96.70
2023-03-17T01:49:16.337Z,96.70
2023-03-17T01:51:51.720Z,96.70
2023-03-17T01:54:24.652Z,96.80
2023-03-17T01:56:55.251Z,96.80
2023-03-17T01:59:29.020Z,96.90
2023-03-17T02:02:02.537Z,96.90
2023-03-17T02:04:31.447Z,96.90
2023-03-17T02:06:59.981Z,97.00
2023-03-17T02:09:29.390Z,96.90
2023-03-17T02:11:59.806Z,97.00
2023-03-17T02:14:28.086Z,97.00
2023-03-17T02:16:56.256Z,97.00
2023-03-17T02:19:25.668Z,97.00
2023-03-17T02:21:56.799Z,97.00
2023-03-17T02:24:31.957Z,97.00
2023-03-17T02:27:05.651Z,97.00
2023-03-17T02:29:35.975Z,97.00
2023-03-17T02:32:05.496Z,97.00
2023-03-17T02:34:33.630Z,97.00
2023-03-17T02:37:03.016Z,97.00
2023-03-17T02:39:31.856Z,97.10
2023-03-17T02:41:59.907Z,97.10
2023-03-17T02:44:28.145Z,97.10
2023-03-17T02:46:56.644Z,97.10
2023-03-17T02:49:25.687Z,97.10
2023-03-17T02:51:54.025Z,97.10
2023-03-17T02:54:23.677Z,97.10
2023-03-17T02:56:51.739Z,97.10
2023-03-17T02:59:19.708Z,97.10
2023-03-17T03:01:48.696Z,97.10
2023-03-17T03:04:17.381Z,97.10
2023-03-17T03:06:45.763Z,97.10
2023-03-17T03:09:14.778Z,97.10
2023-03-17T03:11:44.633Z,97.10
2023-03-17T03:14:13.602Z,97.10
2023-03-17T03:16:41.772Z,97.10
2023-03-17T03:19:10.038Z,97.10
2023-03-17T03:21:38.431Z,97.10
2023-03-17T03:24:07.592Z,97.10
2023-03-17T03:26:36.148Z,97.10
2023-03-17T03:29:06.080Z,97.10
2023-03-17T03:31:34.089Z,97.10
2023-03-17T03:34:02.130Z,97.10
2023-03-17T03:36:30.287Z,97.10
2023-03-17T03:38:58.709Z,97.10
2023-03-17T03:41:27.274Z,97.10
2023-03-17T03:43:55.245Z,97.00
2023-03-17T03:46:24.693Z,97.00
2023-03-17T03:48:52.758Z,97.00
2023-03-17T03:51:20.921Z,97.00
2023-03-17T03:53:49.247Z,97.00
2023-03-17T03:56:17.268Z,97.00
2023-03-17T03:58:45.248Z,97.00
2023-03-17T04:01:14.072Z,97.00
2023-03-17T04:03:43.411Z,97.30
2023-03-17T04:06:11.813Z,96.90
2023-03-17T04:08:39.806Z,97.00
2023-03-17T04:11:08.681Z,96.90
2023-03-17T04:13:37.050Z,96.90
2023-03-17T04:16:05.152Z,96.90
2023-03-17T04:18:33.125Z,96.90
2023-03-17T04:21:02.606Z,96.90
2023-03-17T04:23:31.457Z,96.90
2023-03-17T04:25:59.506Z,96.90
2023-03-17T04:28:27.539Z,96.90
2023-03-17T04:30:56.190Z,96.80
2023-03-17T04:33:24.227Z,96.80
2023-03-17T04:35:52.357Z,96.90
2023-03-17T04:38:21.884Z,96.90
2023-03-17T04:40:51.144Z,96.80
2023-03-17T04:43:19.128Z,96.80
2023-03-17T04:45:47.079Z,96.80
2023-03-17T04:48:15.065Z,96.80
2023-03-17T04:50:44.285Z,96.80
2023-03-17T04:53:12.595Z,96.80
2023-03-17T04:55:42.210Z,96.70
2023-03-17T04:58:11.772Z,96.80
2023-03-17T05:00:41.503Z,96.80
2023-03-17T05:03:24.081Z,96.70
2023-03-17T05:05:55.522Z,96.70
2023-03-17T05:08:23.550Z,96.70
2023-03-17T05:10:53.151Z,96.80
2023-03-17T05:13:21.145Z,96.80
2023-03-17T05:15:49.672Z,96.80
2023-03-17T05:18:18.507Z,96.70
2023-03-17T05:20:47.115Z,96.70
2023-03-17T05:23:15.430Z,96.90
2023-03-17T05:25:44.042Z,96.90
2023-03-17T05:28:13.442Z,96.90
2023-03-17T05:30:42.494Z,96.90
2023-03-17T05:33:10.625Z,96.90
2023-03-17T05:35:39.051Z,96.80
2023-03-17T05:38:07.373Z,96.90
2023-03-17T05:40:35.545Z,96.90
2023-03-17T05:43:03.931Z,96.90
2023-03-17T05:45:33.889Z,96.80
2023-03-17T05:48:02.140Z,96.90
2023-03-17T05:50:30.454Z,96.80
2023-03-17T05:52:58.542Z,96.70
2023-03-17T05:55:26.704Z,96.60
2023-03-17T05:57:54.723Z,96.60
2023-03-17T06:00:23.235Z,96.60
2023-03-17T06:02:52.565Z,96.70
2023-03-17T06:05:20.522Z,96.70
2023-03-17T06:07:54.965Z,96.70
2023-03-17T06:10:24.800Z,96.70
2023-03-17T06:12:52.869Z,96.70
2023-03-17T06:15:21.428Z,96.60
2023-03-17T06:17:49.473Z,96.60
2023-03-17T06:20:19.729Z,96.70
2023-03-17T06:23:02.788Z,96.70
2023-03-17T06:25:32.397Z,96.60
2023-03-17T06:28:02.287Z,96.60
2023-03-17T06:30:30.678Z,96.60
2023-03-17T06:32:58.698Z,96.40
2023-03-17T06:35:28.475Z,96.50
2023-03-17T06:37:56.620Z,96.60
2023-03-17T06:40:24.661Z,96.50
2023-03-17T06:42:52.674Z,96.50
2023-03-17T06:45:20.676Z,96.60
2023-03-17T06:47:51.781Z,96.40
2023-03-17T06:50:20.124Z,96.30
2023-03-17T06:52:49.710Z,96.30
2023-03-17T06:55:18.204Z,96.60
2023-03-17T06:57:48.359Z,96.60
2023-03-17T07:00:18.522Z,96.30
2023-03-17T07:02:47.331Z,96.40
2023-03-17T07:05:15.399Z,96.40
2023-03-17T07:07:43.549Z,96.50
2023-03-17T07:10:17.189Z,96.30
2023-03-17T07:12:45.627Z,96.10
2023-03-17T07:15:13.792Z,96.10
2023-03-17T07:17:42.276Z,96.10
2023-03-17T07:20:11.959Z,96.00
2023-03-17T07:22:40.008Z,96.00
2023-03-17T07:25:09.705Z,95.80
2023-03-17T07:27:39.337Z,95.80
2023-03-17T07:30:08.738Z,95.80
2023-03-17T07:32:37.583Z,95.70
2023-03-17T07:35:06.204Z,95.80
2023-03-17T07:37:34.188Z,95.80
2023-03-17T07:40:02.295Z,95.70
2023-03-17T07:42:30.319Z,95.80
2023-03-17T07:44:59.684Z,95.60
2023-03-17T07:47:27.655Z,95.50
2023-03-17T07:49:55.785Z,95.40
2023-03-17T07:52:23.796Z,95.60
2023-03-17T07:54:53.112Z,95.60
2023-03-17T07:57:22.226Z,95.60
2023-03-17T07:59:50.600Z,95.30
2023-03-17T08:02:21.120Z,95.30
2023-03-17T08:04:50.098Z,95.10
2023-03-17T08:07:18.389Z,94.90
2023-03-17T08:09:46.484Z,94.90
2023-03-17T08:12:15.110Z,94.90
2023-03-17T08:14:43.136Z,95.10
2023-03-17T08:17:11.562Z,95.30
2023-03-17T08:19:41.091Z,95.20
2023-03-17T08:22:09.577Z,95.20
2023-03-17T08:24:39.651Z,94.80
2023-03-17T08:27:07.906Z,94.80
2023-03-17T08:29:36.025Z,94.70
2023-03-17T08:32:04.334Z,94.90
2023-03-17T08:34:32.589Z,94.80
2023-03-17T08:37:03.144Z,94.60
2023-03-17T08:39:31.742Z,94.30
2023-03-17T08:42:00.140Z,94.30
2023-03-17T08:44:28.232Z,94.00
2023-03-17T08:46:56.447Z,93.90
2023-03-17T08:49:24.657Z,93.60
2023-03-17T08:51:53.360Z,93.40
2023-03-17T08:54:23.058Z,93.60
2023-03-17T08:56:51.085Z,93.50
2023-03-17T08:59:19.094Z,93.50
2023-03-17T09:01:47.197Z,93.70
2023-03-17T09:04:15.445Z,93.40
2023-03-17T09:07:01.147Z,93.50
2023-03-17T09:09:32.168Z,93.50
2023-03-17T09:12:00.222Z,93.60
2023-03-17T09:14:29.581Z,93.20
2023-03-17T09:16:57.696Z,93.40
2023-03-17T09:19:25.946Z,93.30
2023-03-17T09:21:53.938Z,93.40
2023-03-17T09:24:21.945Z,93.20
2023-03-17T09:26:51.243Z,92.90
2023-03-17T09:29:19.290Z,92.70
2023-03-17T09:31:47.574Z,92.50
2023-03-17T09:34:15.525Z,92.40
2023-03-17T09:36:43.558Z,92.60
2023-03-17T09:39:11.599Z,92.20
2023-03-17T09:42:09.033Z,91.90
2023-03-17T09:45:02.836Z,92.10
2023-03-17T09:47:47.550Z,92.30
2023-03-17T09:50:20.134Z,92.30
2023-03-17T09:52:50.387Z,92.00
2023-03-17T09:55:27.314Z,92.10
2023-03-17T09:57:58.781Z,92.10
2023-03-17T10:00:29.728Z,91.80
2023-03-17T10:02:58.880Z,92.00
2023-03-17T10:05:28.564Z,92.00
2023-03-17T10:08:04.428Z,91.80
2023-03-17T10:10:46.852Z,91.60
2023-03-17T10:13:25.669Z,91.40
2023-03-17T10:15:59.286Z,91.40
2023-03-17T10:18:31.210Z,91.20
2023-03-17T10:21:02.638Z,91.30
2023-03-17T10:23:33.748Z,91.40
2023-03-17T10:26:22.209Z,91.30
2023-03-17T10:28:51.576Z,91.70
2023-03-17T10:31:22.883Z,91.60
2023-03-17T10:33:53.297Z,91.50
2023-03-17T10:36:36.974Z,91.70
2023-03-17T10:39:07.006Z,91.80
2023-03-17T10:41:37.707Z,91.70
2023-03-17T10:44:11.088Z,91.70
2023-03-17T10:46:40.204Z,91.80
2023-03-17T10:49:10.862Z,91.80
2023-03-17T10:51:40.725Z,91.80
2023-03-17T10:54:12.820Z,91.70
2023-03-17T10:56:43.762Z,92.00
2023-03-17T10:59:19.714Z,91.90
2023-03-17T11:01:54.033Z,91.60
2023-03-17T11:04:31.452Z,91.40
2023-03-17T11:07:01.499Z,90.90
2023-03-17T11:09:35.958Z,90.80
2023-03-17T11:12:08.850Z,91.30
2023-03-17T11:14:38.246Z,91.20
2023-03-17T11:17:17.596Z,91.40
2023-03-17T11:19:55.723Z,91.30
2023-03-17T11:22:30.451Z,91.30
2023-03-17T11:25:05.749Z,91.30
2023-03-17T11:27:36.618Z,91.20
2023-03-17T11:30:18.558Z,91.20
2023-03-17T11:32:55.010Z,91.30
2023-03-17T11:35:35.789Z,91.50
2023-03-17T11:38:20.313Z,91.40
2023-03-17T11:41:11.340Z,91.50
2023-03-17T11:43:54.121Z,91.50
2023-03-17T11:46:29.585Z,91.00
2023-03-17T11:49:03.129Z,91.20
2023-03-17T11:51:37.514Z,91.10
2023-03-17T11:54:11.493Z,91.30
2023-03-17T11:56:44.081Z,91.20
2023-03-17T11:59:22.693Z,91.10
2023-03-17T12:01:59.436Z,90.80
2023-03-17T12:04:34.359Z,90.60
2023-03-17T12:07:09.090Z,90.40
2023-03-17T12:09:42.169Z,90.40
2023-03-17T12:12:15.837Z,90.50
2023-03-17T12:14:48.482Z,90.40
2023-03-17T12:17:25.116Z,90.30
2023-03-17T12:20:09.637Z,90.50
2023-03-17T12:22:41.944Z,90.20
2023-03-17T12:25:17.992Z,90.20
2023-03-17T12:27:53.414Z,90.70
2023-03-17T12:30:33.038Z,90.40
2023-03-17T12:33:11.970Z,90.40
2023-03-17T12:35:40.575Z,90.50
2023-03-17T12:38:13.494Z,90.50
2023-03-17T12:41:01.760Z,90.40
2023-03-17T12:43:39.663Z,90.20
2023-03-17T12:46:44.593Z,90.10
2023-03-17T12:50:02.569Z,89.90
2023-03-17T12:52:46.218Z,90.20
2023-03-17T12:55:17.144Z,90.40
2023-03-17T12:57:47.027Z,90.00
2023-03-17T13:00:24.456Z,89.50
2023-03-17T13:03:08.477Z,89.60
2023-03-17T13:05:38.324Z,89.80
2023-03-17T13:08:10.969Z,89.50
2023-03-17T13:10:42.104Z,89.40
2023-03-17T13:13:41.584Z,89.40
2023-03-17T13:16:29.048Z,89.00
2023-03-17T13:19:20.188Z,89.10
2023-03-17T13:21:54.163Z,88.20
2023-03-17T13:24:41.939Z,88.30
2023-03-17T13:27:14.410Z,88.20
2023-03-17T13:29:47.746Z,87.80
2023-03-17T13:32:39.618Z,88.00
2023-03-17T13:35:22.196Z,87.60
2023-03-17T13:38:14.449Z,87.20
2023-03-17T13:40:53.135Z,87.30
2023-03-17T13:43:45.712Z,86.90
2023-03-17T13:46:22.589Z,87.10
2023-03-17T13:48:51.564Z,87.60
2023-03-17T13:51:22.729Z,88.10
2023-03-17T13:53:55.503Z,86.70
2023-03-17T13:56:26.324Z,86.90
2023-03-17T13:59:06.181Z,86.90
2023-03-17T14:01:40.809Z,87.10
2023-03-17T14:04:18.416Z,85.90
2023-03-17T14:06:48.011Z,86.00
2023-03-17T14:09:28.906Z,86.30
2023-03-17T14:11:59.399Z,86.80
2023-03-17T14:14:37.608Z,87.00
2023-03-17T14:17:13.044Z,86.30
2023-03-17T14:19:42.079Z,86.20
2023-03-17T14:22:24.322Z,85.60
2023-03-17T14:24:54.632Z,85.90
2023-03-17T14:27:25.014Z,85.90
2023-03-17T14:29:53.551Z,85.80
2023-03-17T14:32:24.180Z,86.00
2023-03-17T14:34:57.809Z,86.20
2023-03-17T14:37:26.694Z,86.20
2023-03-17T14:39:58.899Z,86.50
2023-03-17T14:42:28.969Z,86.30
2023-03-17T14:45:05.045Z,85.60
2023-03-17T14:47:39.663Z,85.10
2023-03-17T14:50:17.217Z,85.30
2023-03-17T14:52:45.860Z,85.30
2023-03-17T14:55:17.006Z,85.80
2023-03-17T14:57:50.953Z,86.00
2023-03-17T15:00:34.257Z,86.00
2023-03-17T15:03:05.318Z,85.50
2023-03-17T15:05:40.593Z,85.60
2023-03-17T15:08:37.438Z,85.70
2023-03-17T15:11:10.097Z,85.60
2023-03-17T15:13:39.301Z,85.50
2023-03-17T15:16:08.244Z,85.60
2023-03-17T15:18:36.268Z,85.40
2023-03-17T15:21:04.260Z,85.30
2023-03-17T15:23:41.356Z,85.30
2023-03-17T15:26:26.897Z,85.40
2023-03-17T15:28:54.858Z,85.90
2023-03-17T15:31:28.503Z,85.30
2023-03-17T15:33:57.824Z,85.20
2023-03-17T15:36:32.602Z,85.30
2023-03-17T15:39:01.630Z,85.40
2023-03-17T15:41:30.988Z,85.40
2023-03-17T15:43:58.969Z,85.30
2023-03-17T15:46:31.029Z,85.10
2023-03-17T15:48:59.292Z,85.20
2023-03-17T15:51:28.992Z,85.20
2023-03-17T15:53:57.404Z,84.90
2023-03-17T15:56:25.950Z,84.90
2023-03-17T15:58:56.761Z,85.00
2023-03-17T16:01:27.735Z,85.10
2023-03-17T16:03:57.126Z,85.10
2023-03-17T16:06:25.703Z,84.80
2023-03-17T16:08:53.660Z,85.10
2023-03-17T16:11:28.145Z,84.90
2023-03-17T16:13:59.648Z,85.00
2023-03-17T16:16:33.013Z,85.10
2023-03-17T16:19:01.251Z,85.20
2023-03-17T16:21:31.136Z,85.10
2023-03-17T16:23:59.545Z,85.10
2023-03-17T16:26:28.752Z,84.90
2023-03-17T16:28:58.619Z,85.10
2023-03-17T16:31:29.351Z,84.80
2023-03-17T16:33:57.890Z,85.70
2023-03-17T16:36:26.971Z,85.10
2023-03-17T16:38:55.237Z,85.10
2023-03-17T16:41:25.109Z,85.10
2023-03-17T16:43:58.681Z,85.20
2023-03-17T16:46:34.040Z,85.20
2023-03-17T16:49:03.986Z,85.30
2023-03-17T16:51:31.965Z,85.70
2023-03-17T16:53:59.978Z,85.30
2023-03-17T16:56:28.825Z,85.20
2023-03-17T16:58:56.929Z,85.30
2023-03-17T17:01:28.676Z,85.40
2023-03-17T17:03:57.008Z,85.50
2023-03-17T17:06:27.145Z,85.50
2023-03-17T17:08:55.186Z,85.60
2023-03-17T17:11:23.198Z,85.60
2023-03-17T17:13:51.754Z,85.70
2023-03-17T17:16:24.483Z,85.80
2023-03-17T17:18:54.194Z,85.90
2023-03-17T17:21:22.486Z,85.90
2023-03-17T17:23:52.778Z,86.00
2023-03-17T17:26:21.322Z,86.00
2023-03-17T17:28:49.707Z,86.00
2023-03-17T17:31:18.012Z,86.00
2023-03-17T17:33:46.027Z,86.20
2023-03-17T17:36:17.905Z,86.20
2023-03-17T17:38:46.068Z,86.20
2023-03-17T17:41:16.900Z,86.30
2023-03-17T17:43:46.219Z,86.30
2023-03-17T17:46:19.134Z,86.30
2023-03-17T17:48:47.615Z,86.50
2023-03-17T17:51:17.225Z,86.50
2023-03-17T17:53:45.360Z,86.50
2023-03-17T17:56:15.768Z,86.30
2023-03-17T17:58:44.845Z,86.50
2023-03-17T18:01:16.859Z,86.50
2023-03-17T18:03:44.951Z,86.60
2023-03-17T18:06:13.897Z,86.50
2023-03-17T18:08:43.542Z,86.60
2023-03-17T18:11:11.909Z,86.70
2023-03-17T18:13:40.937Z,87.50
2023-03-17T18:16:10.771Z,86.70
2023-03-17T18:18:42.231Z,86.70
2023-03-17T18:21:10.877Z,86.80
2023-03-17T18:23:42.568Z,86.90
2023-03-17T18:26:12.045Z,86.90
2023-03-17T18:28:40.046Z,86.90
2023-03-17T18:31:10.905Z,87.00
2023-03-17T18:33:39.788Z,87.00
2023-03-17T18:36:08.855Z,87.10
2023-03-17T18:38:37.180Z,87.10
2023-03-17T18:41:07.258Z,87.10
2023-03-17T18:43:36.625Z,87.10
2023-03-17T18:46:04.990Z,87.20
2023-03-17T18:48:33.029Z,87.20
2023-03-17T18:51:01.132Z,87.20
2023-03-17T18:53:30.761Z,87.20
2023-03-17T18:55:59.363Z,87.30
2023-03-17T18:58:28.784Z,87.40
2023-03-17T19:01:01.616Z,87.50
2023-03-17T19:03:32.022Z,87.60
2023-03-17T19:06:09.589Z,87.70
2023-03-17T19:08:37.951Z,87.80
2023-03-17T19:11:07.532Z,88.00
2023-03-17T19:13:35.793Z,88.10
2023-03-17T19:16:06.120Z,88.40
2023-03-17T19:18:34.100Z,88.50
2023-03-17T19:21:02.528Z,88.60
2023-03-17T19:23:32.157Z,88.70
2023-03-17T19:26:00.481Z,88.90
2023-03-17T19:28:28.655Z,89.00
2023-03-17T19:30:56.734Z,89.10
2023-03-17T19:33:26.224Z,89.30
2023-03-17T19:35:56.993Z,89.40
2023-03-17T19:38:25.569Z,89.50
2023-03-17T19:40:53.597Z,89.60
2023-03-17T19:43:38.985Z,89.70
2023-03-17T19:46:07.863Z,89.70
2023-03-17T19:48:37.544Z,89.90
2023-03-17T19:51:06.254Z,90.00
2023-03-17T19:53:34.253Z,90.00
2023-03-17T19:56:02.322Z,90.00
2023-03-17T19:58:30.608Z,90.00
2023-03-17T20:00:58.665Z,90.10
2023-03-17T20:03:26.642Z,90.20
2023-03-17T20:05:56.054Z,90.30
2023-03-17T20:08:24.852Z,90.30
2023-03-17T20:10:53.903Z,90.40
2023-03-17T20:13:22.579Z,90.40
2023-03-17T20:15:51.522Z,90.50
2023-03-17T20:18:20.028Z,90.50
2023-03-17T20:20:52.408Z,90.50
2023-03-17T20:23:22.636Z,90.60
2023-03-17T20:25:51.443Z,90.70
2023-03-17T20:28:21.410Z,90.70
2023-03-17T20:30:50.313Z,90.70
2023-03-17T20:33:18.372Z,90.70
2023-03-17T20:35:47.550Z,90.70
2023-03-17T20:38:16.286Z,90.80
2023-03-17T20:40:45.809Z,90.70
2023-03-17T20:43:14.184Z,90.70
2023-03-17T20:45:42.313Z,90.80
2023-03-17T20:48:10.802Z,90.80
2023-03-17T20:50:39.214Z,90.80
2023-03-17T20:53:07.462Z,90.80
2023-03-17T20:55:36.544Z,90.80
2023-03-17T20:58:06.061Z,91.20
2023-03-17T21:00:34.401Z,90.90
2023-03-17T21:03:02.740Z,91.00
2023-03-17T21:05:32.631Z,91.00
2023-03-17T21:08:01.150Z,91.10
2023-03-17T21:10:30.851Z,91.10
2023-03-17T21:12:58.922Z,91.10
2023-03-17T21:15:28.806Z,91.10
2023-03-17T21:17:57.090Z,91.20
2023-03-17T21:20:26.139Z,91.20
2023-03-17T21:22:54.201Z,91.30
2023-03-17T21:25:22.288Z,91.60
2023-03-17T21:27:50.842Z,91.30
2023-03-17T21:30:19.077Z,91.30
2023-03-17T21:32:48.705Z,91.40
2023-03-17T21:35:18.169Z,91.40
2023-03-17T21:37:46.179Z,91.40
2023-03-17T21:40:15.690Z,91.50
2023-03-17T21:42:43.753Z,91.60
2023-03-17T21:45:11.881Z,91.60
2023-03-17T21:47:42.949Z,91.70
2023-03-17T21:50:13.261Z,91.70
2023-03-17T21:52:42.469Z,91.80
2023-03-17T21:55:11.236Z,91.80
2023-03-17T21:57:39.562Z,91.80
2023-03-17T22:00:09.602Z,91.90
2023-03-17T22:02:37.573Z,91.90
2023-03-17T22:05:06.935Z,91.90
2023-03-17T22:07:36.240Z,91.90
2023-03-17T22:10:07.039Z,91.90
2023-03-17T22:12:35.248Z,92.00
2023-03-17T22:15:03.960Z,92.00
2023-03-17T22:17:32.585Z,92.00
2023-03-17T22:20:00.582Z,92.00
2023-03-17T22:22:28.786Z,92.10
2023-03-17T22:24:58.107Z,92.10
2023-03-17T22:27:27.386Z,92.10
2023-03-17T22:29:55.552Z,92.10
2023-03-17T22:32:23.521Z,92.10
2023-03-17T22:34:51.526Z,92.10
2023-03-17T22:37:19.482Z,92.10
2023-03-17T22:39:47.414Z,92.10
2023-03-17T22:42:16.786Z,92.10
2023-03-17T22:44:44.768Z,92.10
2023-03-17T22:47:12.745Z,92.10
2023-03-17T22:49:40.933Z,92.10
2023-03-17T22:52:08.966Z,92.10
2023-03-17T22:54:36.944Z,92.10
2023-03-17T22:57:05.738Z,92.10
2023-03-17T22:59:35.468Z,92.10
2023-03-17T23:02:03.554Z,92.10
2023-03-17T23:04:32.143Z,92.20
2023-03-17T23:07:00.171Z,92.50
2023-03-17T23:09:28.178Z,92.20
2023-03-17T23:11:56.402Z,92.10
2023-03-17T23:14:24.383Z,92.10
2023-03-17T23:16:53.848Z,92.10
2023-03-17T23:19:22.160Z,92.20
2023-03-17T23:21:50.174Z,92.20
2023-03-17T23:24:18.311Z,92.20
2023-03-17T23:26:46.293Z,92.30
2023-03-17T23:29:14.515Z,92.60
2023-03-17T23:31:42.569Z,92.30
2023-03-17T23:34:12.104Z,92.20
2023-03-17T23:36:40.586Z,92.60
2023-03-17T23:39:09.728Z,92.30
2023-03-17T23:41:38.134Z,92.30
2023-03-17T23:44:06.550Z,92.30
2023-03-17T23:46:34.591Z,92.30
2023-03-17T23:49:04.272Z,92.30
2023-03-17T23:51:34.341Z,92.30
2023-03-17T23:54:02.539Z,92.30
2023-03-17T23:56:30.764Z,92.30
2023-03-17T23:58:59.001Z,92.30
